createdAt,value
2023-02-09T00:00:18.255Z,971.69
2023-02-09T00:01:18.216Z,971.67
2023-02-09T00:02:18.249Z,971.69
2023-02-09T00:03:18.224Z,971.65
2023-02-09T00:04:18.190Z,971.62
2023-02-09T00:05:18.188Z,971.61
2023-02-09T00:06:18.187Z,971.68
2023-02-09T00:07:18.167Z,971.69
2023-02-09T00:08:18.167Z,971.62
2023-02-09T00:09:18.126Z,971.61
2023-02-09T00:10:18.125Z,971.67
2023-02-09T00:11:18.118Z,971.68
2023-02-09T00:12:18.109Z,971.70
2023-02-09T00:13:18.116Z,971.75
2023-02-09T00:14:20.301Z,971.69
2023-02-09T00:15:18.095Z,971.73
2023-02-09T00:16:18.186Z,971.77
2023-02-09T00:17:18.058Z,971.75
2023-02-09T00:18:18.048Z,971.76
2023-02-09T00:19:18.382Z,971.74
2023-02-09T00:20:18.020Z,971.72
2023-02-09T00:21:17.998Z,971.74
2023-02-09T00:22:18.013Z,971.76
2023-02-09T00:23:18.001Z,971.76
2023-02-09T00:24:17.992Z,971.77
2023-02-09T00:25:17.978Z,971.76
2023-02-09T00:26:17.961Z,971.79
2023-02-09T00:27:17.937Z,971.80
2023-02-09T00:28:18.001Z,971.78
2023-02-09T00:29:17.920Z,971.81
2023-02-09T00:30:17.908Z,971.78
2023-02-09T00:31:18.128Z,971.81
2023-02-09T00:32:17.900Z,971.80
2023-02-09T00:33:17.884Z,971.78
2023-02-09T00:34:17.873Z,971.78
2023-02-09T00:35:17.883Z,971.74
2023-02-09T00:36:17.841Z,971.74
2023-02-09T00:37:17.834Z,971.76
2023-02-09T00:38:17.873Z,971.80
2023-02-09T00:39:17.868Z,971.77
2023-02-09T00:40:17.808Z,971.77
2023-02-09T00:41:17.811Z,971.74
2023-02-09T00:42:17.783Z,971.73
2023-02-09T00:43:17.781Z,971.67
2023-02-09T00:44:17.768Z,971.64
2023-02-09T00:45:17.754Z,971.61
2023-02-09T00:46:17.789Z,971.58
2023-02-09T00:47:17.751Z,971.57
2023-02-09T00:48:17.798Z,971.60
2023-02-09T00:49:17.708Z,971.59
2023-02-09T00:50:17.691Z,971.55
2023-02-09T00:51:17.698Z,971.58
2023-02-09T00:52:17.697Z,971.57
2023-02-09T00:53:17.674Z,971.54
2023-02-09T00:54:17.657Z,971.56
2023-02-09T00:55:17.662Z,971.54
2023-02-09T00:56:17.633Z,971.52
2023-02-09T00:57:17.625Z,971.50
2023-02-09T00:58:17.638Z,971.51
2023-02-09T00:59:17.609Z,971.53
2023-02-09T01:00:17.588Z,971.54
2023-02-09T01:01:17.786Z,971.54
2023-02-09T01:02:17.574Z,971.58
2023-02-09T01:03:17.559Z,971.66
2023-02-09T01:04:17.622Z,971.63
2023-02-09T01:05:17.527Z,971.65
2023-02-09T01:06:17.527Z,971.64
2023-02-09T01:07:17.518Z,971.68
2023-02-09T01:08:17.519Z,971.67
2023-02-09T01:09:17.501Z,971.64
2023-02-09T01:10:17.532Z,971.62
2023-02-09T01:11:17.479Z,971.62
2023-02-09T01:12:17.449Z,971.59
2023-02-09T01:13:17.461Z,971.61
2023-02-09T01:14:17.428Z,971.58
2023-02-09T01:15:17.414Z,971.56
2023-02-09T01:16:17.466Z,971.61
2023-02-09T01:17:17.396Z,971.59
2023-02-09T01:18:17.407Z,971.59
2023-02-09T01:19:17.390Z,971.62
2023-02-09T01:20:17.360Z,971.57
2023-02-09T01:21:17.388Z,971.62
2023-02-09T01:22:17.346Z,971.62
2023-02-09T01:23:17.333Z,971.61
2023-02-09T01:24:17.328Z,971.54
2023-02-09T01:25:17.342Z,971.55
2023-02-09T01:26:17.312Z,971.57
2023-02-09T01:27:17.299Z,971.55
2023-02-09T01:28:17.329Z,971.55
2023-02-09T01:29:17.322Z,971.56
2023-02-09T01:30:17.259Z,971.63
2023-02-09T01:31:17.826Z,971.70
2023-02-09T01:32:17.239Z,971.60
2023-02-09T01:33:17.221Z,971.57
2023-02-09T01:34:17.219Z,971.57
2023-02-09T01:35:17.217Z,971.53
2023-02-09T01:36:17.187Z,971.53
2023-02-09T01:37:18.842Z,971.60
2023-02-09T01:38:17.170Z,971.56
2023-02-09T01:39:17.169Z,971.55
2023-02-09T01:40:17.169Z,971.55
2023-02-09T01:41:17.893Z,971.52
2023-02-09T01:42:17.126Z,971.55
2023-02-09T01:43:17.143Z,971.53
2023-02-09T01:44:17.140Z,971.50
2023-02-09T01:45:17.133Z,971.49
2023-02-09T01:46:17.149Z,971.51
2023-02-09T01:47:17.074Z,971.50
2023-02-09T01:48:17.069Z,971.47
2023-02-09T01:49:17.085Z,971.43
2023-02-09T01:50:17.086Z,971.42
2023-02-09T01:51:17.031Z,971.42
2023-02-09T01:52:17.024Z,971.39
2023-02-09T01:53:17.004Z,971.39
2023-02-09T01:54:17.045Z,971.36
2023-02-09T01:55:16.992Z,971.40
2023-02-09T01:56:17.003Z,971.40
2023-02-09T01:57:16.970Z,971.39
2023-02-09T01:58:16.965Z,971.37
2023-02-09T01:59:16.986Z,971.39
2023-02-09T02:00:16.928Z,971.35
2023-02-09T02:01:16.977Z,971.30
2023-02-09T02:02:16.979Z,971.30
2023-02-09T02:03:16.913Z,971.28
2023-02-09T02:04:16.916Z,971.29
2023-02-09T02:05:16.882Z,971.31
2023-02-09T02:06:16.911Z,971.34
2023-02-09T02:07:16.858Z,971.32
2023-02-09T02:08:16.860Z,971.30
2023-02-09T02:09:16.846Z,971.28
2023-02-09T02:10:16.827Z,971.32
2023-02-09T02:11:16.807Z,971.26
2023-02-09T02:12:16.817Z,971.28
2023-02-09T02:13:16.786Z,971.28
2023-02-09T02:14:16.821Z,971.25
2023-02-09T02:15:16.827Z,971.27
2023-02-09T02:16:16.837Z,971.31
2023-02-09T02:17:16.764Z,971.32
2023-02-09T02:18:16.768Z,971.32
2023-02-09T02:19:16.759Z,971.30
2023-02-09T02:20:16.744Z,971.32
2023-02-09T02:21:16.711Z,971.32
2023-02-09T02:22:16.696Z,971.35
2023-02-09T02:23:16.683Z,971.31
2023-02-09T02:24:16.687Z,971.34
2023-02-09T02:25:16.666Z,971.38
2023-02-09T02:26:16.646Z,971.32
2023-02-09T02:27:16.640Z,971.32
2023-02-09T02:28:16.679Z,971.32
2023-02-09T02:29:16.651Z,971.37
2023-02-09T02:30:16.638Z,971.39
2023-02-09T02:31:16.771Z,971.38
2023-02-09T02:32:16.633Z,971.38
2023-02-09T02:33:16.596Z,971.40
2023-02-09T02:34:16.602Z,971.39
2023-02-09T02:35:16.826Z,971.35
2023-02-09T02:36:16.549Z,971.41
2023-02-09T02:37:16.587Z,971.40
2023-02-09T02:38:16.538Z,971.32
2023-02-09T02:39:16.512Z,971.35
2023-02-09T02:40:16.512Z,971.30
2023-02-09T02:41:16.503Z,971.29
2023-02-09T02:42:16.549Z,971.31
2023-02-09T02:43:16.482Z,971.27
2023-02-09T02:44:16.510Z,971.26
2023-02-09T02:45:16.501Z,971.25
2023-02-09T02:46:17.225Z,971.30
2023-02-09T02:47:16.420Z,971.27
2023-02-09T02:48:16.448Z,971.24
2023-02-09T02:49:16.409Z,971.28
2023-02-09T02:50:16.404Z,971.25
2023-02-09T02:51:16.396Z,971.25
2023-02-09T02:52:16.386Z,971.25
2023-02-09T02:53:16.390Z,971.21
2023-02-09T02:54:16.351Z,971.24
2023-02-09T02:55:16.358Z,971.19
2023-02-09T02:56:16.335Z,971.17
2023-02-09T02:57:16.346Z,971.16
2023-02-09T02:58:16.326Z,971.16
2023-02-09T02:59:16.305Z,971.12
2023-02-09T03:00:16.312Z,971.16
2023-02-09T03:01:16.339Z,971.14
2023-02-09T03:02:16.272Z,971.07
2023-02-09T03:03:16.630Z,971.12
2023-02-09T03:04:16.254Z,971.18
2023-02-09T03:05:16.321Z,971.15
2023-02-09T03:06:16.221Z,971.17
2023-02-09T03:07:16.280Z,971.20
2023-02-09T03:08:16.210Z,971.21
2023-02-09T03:09:16.187Z,971.23
2023-02-09T03:10:16.181Z,971.19
2023-02-09T03:11:16.182Z,971.18
2023-02-09T03:12:16.156Z,971.16
2023-02-09T03:13:16.141Z,971.12
2023-02-09T03:14:16.149Z,971.14
2023-02-09T03:15:16.129Z,971.19
2023-02-09T03:16:16.155Z,971.15
2023-02-09T03:17:16.101Z,971.16
2023-02-09T03:18:16.108Z,971.19
2023-02-09T03:19:16.090Z,971.11
2023-02-09T03:20:16.076Z,971.15
2023-02-09T03:21:16.085Z,971.13
2023-02-09T03:22:16.056Z,971.16
2023-02-09T03:23:16.043Z,971.17
2023-02-09T03:24:16.070Z,971.12
2023-02-09T03:25:16.035Z,971.12
2023-02-09T03:26:16.026Z,971.14
2023-02-09T03:27:15.999Z,971.15
2023-02-09T03:28:16.009Z,971.19
2023-02-09T03:29:15.974Z,971.18
2023-02-09T03:30:15.970Z,971.19
2023-02-09T03:31:16.144Z,971.24
2023-02-09T03:32:15.942Z,971.18
2023-02-09T03:33:15.937Z,971.21
2023-02-09T03:34:15.951Z,971.21
2023-02-09T03:35:15.922Z,971.26
2023-02-09T03:36:15.931Z,971.25
2023-02-09T03:37:15.896Z,971.21
2023-02-09T03:38:15.884Z,971.21
2023-02-09T03:39:15.873Z,971.21
2023-02-09T03:40:15.850Z,971.19
2023-02-09T03:41:15.860Z,971.17
2023-02-09T03:42:15.856Z,971.17
2023-02-09T03:43:15.825Z,971.17
2023-02-09T03:44:15.814Z,971.18
2023-02-09T03:45:15.826Z,971.13
2023-02-09T03:46:15.841Z,971.15
2023-02-09T03:47:15.779Z,971.14
2023-02-09T03:48:15.790Z,971.17
2023-02-09T03:49:15.766Z,971.15
2023-02-09T03:50:15.742Z,971.18
2023-02-09T03:51:15.750Z,971.16
2023-02-09T03:52:15.744Z,971.19
2023-02-09T03:53:15.736Z,971.13
2023-02-09T03:54:15.696Z,971.13
2023-02-09T03:55:15.696Z,971.21
2023-02-09T03:56:15.693Z,971.18
2023-02-09T03:57:15.671Z,971.16
2023-02-09T03:58:15.655Z,971.19
2023-02-09T03:59:15.669Z,971.17
2023-02-09T04:00:15.678Z,971.14
2023-02-09T04:01:15.721Z,971.12
2023-02-09T04:02:15.692Z,971.18
2023-02-09T04:03:15.607Z,971.16
2023-02-09T04:04:15.598Z,971.12
2023-02-09T04:05:15.590Z,971.15
2023-02-09T04:06:15.579Z,971.15
2023-02-09T04:07:15.574Z,971.13
2023-02-09T04:08:15.548Z,971.14
2023-02-09T04:09:15.552Z,971.14
2023-02-09T04:10:15.535Z,971.16
2023-02-09T04:11:15.523Z,971.18
2023-02-09T04:12:15.501Z,971.17
2023-02-09T04:13:15.503Z,971.19
2023-02-09T04:14:15.485Z,971.20
2023-02-09T04:15:15.481Z,971.23
2023-02-09T04:16:15.537Z,971.17
2023-02-09T04:17:15.459Z,971.23
2023-02-09T04:18:15.446Z,971.20
2023-02-09T04:19:15.435Z,971.23
2023-02-09T04:20:15.429Z,971.22
2023-02-09T04:21:15.670Z,971.27
2023-02-09T04:22:15.397Z,971.25
2023-02-09T04:23:15.469Z,971.23
2023-02-09T04:24:15.378Z,971.27
2023-02-09T04:25:15.364Z,971.28
2023-02-09T04:26:15.374Z,971.30
2023-02-09T04:27:15.360Z,971.30
2023-02-09T04:28:15.393Z,971.22
2023-02-09T04:29:15.329Z,971.25
2023-02-09T04:30:15.301Z,971.26
2023-02-09T04:31:15.476Z,971.28
2023-02-09T04:32:15.302Z,971.31
2023-02-09T04:33:15.282Z,971.25
2023-02-09T04:34:15.304Z,971.23
2023-02-09T04:35:15.277Z,971.25
2023-02-09T04:36:15.267Z,971.23
2023-02-09T04:37:15.254Z,971.21
2023-02-09T04:38:15.220Z,971.22
2023-02-09T04:39:15.220Z,971.25
2023-02-09T04:40:15.249Z,971.22
2023-02-09T04:41:15.233Z,971.20
2023-02-09T04:42:15.198Z,971.16
2023-02-09T04:43:15.185Z,971.26
2023-02-09T04:44:15.175Z,971.31
2023-02-09T04:45:15.172Z,971.28
2023-02-09T04:46:15.186Z,971.29
2023-02-09T04:47:15.153Z,971.26
2023-02-09T04:48:15.186Z,971.24
2023-02-09T04:49:15.188Z,971.30
2023-02-09T04:50:15.094Z,971.25
2023-02-09T04:51:15.096Z,971.17
2023-02-09T04:52:15.087Z,971.23
2023-02-09T04:53:15.086Z,971.21
2023-02-09T04:54:15.089Z,971.20
2023-02-09T04:55:15.045Z,971.25
2023-02-09T04:56:15.325Z,971.25
2023-02-09T04:57:15.038Z,971.29
2023-02-09T04:58:17.060Z,971.30
2023-02-09T04:59:15.024Z,971.32
2023-02-09T05:00:15.012Z,971.33
2023-02-09T05:01:15.024Z,971.36
2023-02-09T05:02:14.984Z,971.31
2023-02-09T05:03:14.992Z,971.32
2023-02-09T05:04:14.958Z,971.34
2023-02-09T05:05:14.944Z,971.35
2023-02-09T05:06:14.927Z,971.39
2023-02-09T05:07:14.924Z,971.34
2023-02-09T05:08:14.901Z,971.36
2023-02-09T05:09:14.890Z,971.38
2023-02-09T05:10:14.894Z,971.38
2023-02-09T05:11:14.892Z,971.44
2023-02-09T05:12:14.863Z,971.48
2023-02-09T05:13:14.848Z,971.44
2023-02-09T05:14:14.842Z,971.40
2023-02-09T05:15:14.838Z,971.44
2023-02-09T05:16:14.854Z,971.41
2023-02-09T05:17:14.846Z,971.43
2023-02-09T05:18:14.808Z,971.43
2023-02-09T05:19:14.809Z,971.42
2023-02-09T05:20:14.846Z,971.47
2023-02-09T05:21:14.773Z,971.44
2023-02-09T05:22:14.835Z,971.43
2023-02-09T05:23:14.774Z,971.52
2023-02-09T05:24:14.736Z,971.45
2023-02-09T05:25:14.743Z,971.51
2023-02-09T05:26:14.707Z,971.44
2023-02-09T05:27:14.723Z,971.45
2023-02-09T05:28:14.752Z,971.41
2023-02-09T05:29:14.677Z,971.49
2023-02-09T05:30:14.677Z,971.53
2023-02-09T05:31:14.836Z,971.57
2023-02-09T05:32:14.862Z,971.60
2023-02-09T05:33:14.635Z,971.51
2023-02-09T05:34:14.639Z,971.58
2023-02-09T05:35:14.638Z,971.60
2023-02-09T05:36:14.624Z,971.65
2023-02-09T05:37:14.603Z,971.56
2023-02-09T05:38:14.585Z,971.59
2023-02-09T05:39:14.583Z,971.62
2023-02-09T05:40:14.567Z,971.62
2023-02-09T05:41:14.552Z,971.66
2023-02-09T05:42:14.558Z,971.77
2023-02-09T05:43:14.548Z,971.63
2023-02-09T05:44:14.506Z,971.70
2023-02-09T05:45:14.521Z,971.70
2023-02-09T05:46:14.601Z,971.65
2023-02-09T05:47:14.490Z,971.61
2023-02-09T05:48:14.479Z,971.59
2023-02-09T05:49:14.469Z,971.56
2023-02-09T05:50:14.781Z,971.60
2023-02-09T05:51:14.465Z,971.57
2023-02-09T05:52:14.467Z,971.57
2023-02-09T05:53:15.305Z,971.58
2023-02-09T05:54:14.458Z,971.62
2023-02-09T05:55:14.480Z,971.61
2023-02-09T05:56:14.405Z,971.56
2023-02-09T05:57:14.393Z,971.62
2023-02-09T05:58:14.445Z,971.59
2023-02-09T05:59:14.369Z,971.60
2023-02-09T06:00:14.342Z,971.57
2023-02-09T06:01:14.334Z,971.58
2023-02-09T06:02:14.379Z,971.61
2023-02-09T06:03:15.210Z,971.58
2023-02-09T06:04:14.302Z,971.60
2023-02-09T06:05:14.318Z,971.57
2023-02-09T06:06:14.284Z,971.64
2023-02-09T06:07:14.284Z,971.60
2023-02-09T06:08:14.289Z,971.60
2023-02-09T06:09:14.268Z,971.60
2023-02-09T06:10:14.266Z,971.63
2023-02-09T06:11:14.270Z,971.64
2023-02-09T06:12:14.225Z,971.63
2023-02-09T06:13:14.327Z,971.65
2023-02-09T06:14:14.211Z,971.63
2023-02-09T06:15:14.174Z,971.69
2023-02-09T06:16:14.193Z,971.66
2023-02-09T06:17:14.163Z,971.68
2023-02-09T06:18:14.166Z,971.70
2023-02-09T06:19:14.201Z,971.64
2023-02-09T06:20:14.119Z,971.70
2023-02-09T06:21:14.130Z,971.66
2023-02-09T06:22:14.140Z,971.70
2023-02-09T06:23:14.119Z,971.73
2023-02-09T06:24:14.076Z,971.66
2023-02-09T06:25:14.212Z,971.71
2023-02-09T06:26:14.079Z,971.70
2023-02-09T06:27:14.090Z,971.72
2023-02-09T06:28:14.178Z,971.68
2023-02-09T06:29:14.021Z,971.78
2023-02-09T06:30:14.035Z,971.80
2023-02-09T06:31:14.065Z,971.81
2023-02-09T06:32:14.107Z,971.81
2023-02-09T06:33:14.031Z,971.85
2023-02-09T06:34:13.971Z,971.84
2023-02-09T06:35:13.961Z,971.91
2023-02-09T06:36:13.948Z,971.86
2023-02-09T06:37:13.945Z,971.82
2023-02-09T06:38:13.938Z,971.91
2023-02-09T06:39:13.939Z,971.92
2023-02-09T06:40:13.940Z,971.92
2023-02-09T06:41:13.910Z,972.01
2023-02-09T06:42:13.898Z,971.97
2023-02-09T06:43:14.349Z,971.98
2023-02-09T06:44:13.880Z,971.97
2023-02-09T06:45:13.900Z,971.98
2023-02-09T06:46:13.951Z,971.99
2023-02-09T06:47:13.837Z,971.96
2023-02-09T06:48:13.850Z,972.02
2023-02-09T06:49:13.825Z,972.00
2023-02-09T06:50:13.808Z,971.99
2023-02-09T06:51:13.812Z,972.01
2023-02-09T06:52:13.782Z,972.01
2023-02-09T06:53:13.798Z,972.04
2023-02-09T06:54:13.769Z,972.07
2023-02-09T06:55:13.751Z,972.04
2023-02-09T06:56:13.762Z,972.10
2023-02-09T06:57:13.781Z,972.07
2023-02-09T06:58:13.715Z,972.07
2023-02-09T06:59:13.726Z,972.07
2023-02-09T07:00:13.693Z,972.08
2023-02-09T07:01:13.698Z,972.08
2023-02-09T07:02:16.321Z,972.05
2023-02-09T07:03:13.710Z,972.09
2023-02-09T07:04:13.676Z,972.04
2023-02-09T07:05:13.724Z,971.99
2023-02-09T07:06:13.637Z,971.96
2023-02-09T07:07:13.655Z,972.11
2023-02-09T07:08:14.255Z,972.00
2023-02-09T07:09:13.648Z,972.05
2023-02-09T07:10:13.578Z,972.00
2023-02-09T07:11:13.577Z,972.08
2023-02-09T07:12:13.569Z,972.03
2023-02-09T07:13:13.564Z,972.03
2023-02-09T07:14:13.549Z,972.11
2023-02-09T07:15:13.558Z,972.07
2023-02-09T07:16:13.607Z,972.08
2023-02-09T07:17:13.515Z,972.13
2023-02-09T07:18:13.505Z,972.09
2023-02-09T07:19:13.518Z,972.14
2023-02-09T07:20:13.492Z,972.14
2023-02-09T07:21:13.467Z,972.19
2023-02-09T07:22:13.554Z,972.17
2023-02-09T07:23:13.445Z,972.14
2023-02-09T07:24:13.463Z,972.13
2023-02-09T07:25:13.439Z,972.20
2023-02-09T07:26:13.441Z,972.16
2023-02-09T07:27:13.409Z,972.08
2023-02-09T07:28:13.461Z,972.12
2023-02-09T07:29:13.444Z,972.11
2023-02-09T07:30:13.377Z,972.18
2023-02-09T07:31:13.547Z,972.16
2023-02-09T07:32:13.347Z,972.15
2023-02-09T07:33:13.372Z,972.16
2023-02-09T07:34:13.335Z,972.16
2023-02-09T07:35:13.322Z,972.15
2023-02-09T07:36:13.338Z,972.14
2023-02-09T07:37:13.342Z,972.12
2023-02-09T07:38:13.310Z,972.12
2023-02-09T07:39:13.290Z,972.04
2023-02-09T07:40:13.293Z,972.10
2023-02-09T07:41:13.256Z,972.07
2023-02-09T07:42:13.279Z,972.04
2023-02-09T07:43:13.225Z,972.04
2023-02-09T07:44:13.225Z,972.09
2023-02-09T07:45:13.214Z,972.13
2023-02-09T07:46:13.239Z,972.09
2023-02-09T07:47:13.233Z,972.11
2023-02-09T07:48:13.185Z,972.15
2023-02-09T07:49:13.223Z,972.11
2023-02-09T07:50:13.162Z,972.15
2023-02-09T07:51:13.140Z,972.17
2023-02-09T07:52:13.122Z,972.13
2023-02-09T07:53:13.127Z,972.17
2023-02-09T07:54:13.126Z,972.20
2023-02-09T07:55:13.134Z,972.19
2023-02-09T07:56:13.124Z,972.26
2023-02-09T07:57:13.067Z,972.29
2023-02-09T07:58:13.077Z,972.23
2023-02-09T07:59:13.086Z,972.21
2023-02-09T08:00:13.053Z,972.19
2023-02-09T08:01:13.032Z,972.25
2023-02-09T08:02:13.021Z,972.23
2023-02-09T08:03:13.074Z,972.23
2023-02-09T08:04:13.008Z,972.25
2023-02-09T08:05:13.040Z,972.25
2023-02-09T08:06:13.024Z,972.26
2023-02-09T08:07:12.957Z,972.26
2023-02-09T08:08:12.974Z,972.26
2023-02-09T08:09:12.948Z,972.26
2023-02-09T08:10:12.939Z,972.25
2023-02-09T08:11:12.942Z,972.24
2023-02-09T08:12:13.002Z,972.18
2023-02-09T08:13:12.934Z,972.24
2023-02-09T08:14:12.945Z,972.20
2023-02-09T08:15:12.977Z,972.23
2023-02-09T08:16:12.909Z,972.30
2023-02-09T08:17:12.869Z,972.24
2023-02-09T08:18:13.215Z,972.26
2023-02-09T08:19:12.895Z,972.20
2023-02-09T08:20:12.834Z,972.23
2023-02-09T08:21:12.824Z,972.16
2023-02-09T08:22:12.824Z,972.18
2023-02-09T08:23:12.836Z,972.22
2023-02-09T08:24:12.811Z,972.18
2023-02-09T08:25:15.271Z,972.16
2023-02-09T08:26:12.804Z,972.19
2023-02-09T08:27:12.758Z,972.17
2023-02-09T08:28:12.821Z,972.19
2023-02-09T08:29:12.726Z,972.17
2023-02-09T08:30:12.744Z,972.16
2023-02-09T08:31:12.818Z,972.14
2023-02-09T08:32:12.813Z,972.13
2023-02-09T08:33:12.689Z,972.14
2023-02-09T08:34:12.672Z,972.15
2023-02-09T08:35:12.707Z,972.15
2023-02-09T08:36:12.680Z,972.14
2023-02-09T08:37:12.669Z,972.16
2023-02-09T08:38:12.648Z,972.19
2023-02-09T08:39:12.765Z,972.20
2023-02-09T08:40:12.653Z,972.18
2023-02-09T08:41:12.629Z,972.14
2023-02-09T08:42:13.616Z,972.18
2023-02-09T08:43:12.686Z,972.13
2023-02-09T08:44:12.594Z,972.15
2023-02-09T08:45:12.568Z,972.13
2023-02-09T08:46:12.705Z,972.20
2023-02-09T08:47:12.552Z,972.16
2023-02-09T08:48:12.540Z,972.16
2023-02-09T08:49:12.607Z,972.14
2023-02-09T08:50:12.553Z,972.14
2023-02-09T08:51:12.551Z,972.18
2023-02-09T08:52:12.510Z,972.21
2023-02-09T08:53:12.470Z,972.18
2023-02-09T08:54:12.478Z,972.23
2023-02-09T08:55:12.818Z,972.13
2023-02-09T08:56:12.483Z,972.16
2023-02-09T08:57:12.430Z,972.14
2023-02-09T08:58:12.418Z,972.15
2023-02-09T08:59:12.428Z,972.20
2023-02-09T09:00:12.484Z,972.18
2023-02-09T09:01:12.437Z,972.23
2023-02-09T09:02:12.391Z,972.29
2023-02-09T09:03:12.362Z,972.19
2023-02-09T09:04:12.383Z,972.29
2023-02-09T09:05:12.371Z,972.25
2023-02-09T09:06:12.376Z,972.21
2023-02-09T09:07:12.337Z,972.18
2023-02-09T09:08:12.313Z,972.18
2023-02-09T09:09:12.307Z,972.23
2023-02-09T09:10:12.322Z,972.15
2023-02-09T09:11:12.321Z,972.17
2023-02-09T09:12:12.281Z,972.16
2023-02-09T09:13:12.245Z,972.15
2023-02-09T09:14:12.252Z,972.12
2023-02-09T09:15:12.303Z,972.11
2023-02-09T09:16:12.242Z,972.12
2023-02-09T09:17:12.250Z,972.15
2023-02-09T09:18:12.196Z,972.19
2023-02-09T09:19:12.188Z,972.20
2023-02-09T09:20:12.331Z,972.17
2023-02-09T09:21:12.376Z,972.18
2023-02-09T09:22:12.253Z,972.20
2023-02-09T09:23:12.139Z,972.18
2023-02-09T09:24:12.135Z,972.21
2023-02-09T09:25:12.129Z,972.20
2023-02-09T09:26:12.128Z,972.24
2023-02-09T09:27:12.165Z,972.19
2023-02-09T09:28:12.153Z,972.22
2023-02-09T09:29:12.156Z,972.21
2023-02-09T09:30:12.138Z,972.17
2023-02-09T09:31:12.077Z,972.18
2023-02-09T09:32:12.138Z,972.19
2023-02-09T09:33:12.119Z,972.18
2023-02-09T09:34:12.030Z,972.14
2023-02-09T09:35:12.148Z,972.18
2023-02-09T09:36:12.031Z,972.15
2023-02-09T09:37:12.019Z,972.16
2023-02-09T09:38:11.993Z,972.19
2023-02-09T09:39:11.978Z,972.22
2023-02-09T09:40:12.023Z,972.20
2023-02-09T09:41:11.973Z,972.22
2023-02-09T09:42:11.984Z,972.23
2023-02-09T09:43:11.948Z,972.24
2023-02-09T09:44:11.929Z,972.25
2023-02-09T09:45:11.936Z,972.27
2023-02-09T09:46:11.953Z,972.28
2023-02-09T09:47:11.888Z,972.31
2023-02-09T09:48:11.889Z,972.30
2023-02-09T09:49:11.873Z,972.26
2023-02-09T09:50:11.860Z,972.34
2023-02-09T09:51:11.880Z,972.31
2023-02-09T09:52:11.827Z,972.33
2023-02-09T09:53:11.859Z,972.31
2023-02-09T09:54:11.853Z,972.31
2023-02-09T09:55:11.791Z,972.32
2023-02-09T09:56:11.818Z,972.35
2023-02-09T09:57:11.780Z,972.39
2023-02-09T09:58:11.778Z,972.36
2023-02-09T09:59:11.779Z,972.38
2023-02-09T10:00:11.746Z,972.37
2023-02-09T10:01:11.798Z,972.47
2023-02-09T10:02:14.021Z,972.38
2023-02-09T10:03:11.713Z,972.40
2023-02-09T10:04:11.735Z,972.46
2023-02-09T10:05:11.697Z,972.45
2023-02-09T10:06:11.695Z,972.44
2023-02-09T10:07:11.667Z,972.44
2023-02-09T10:08:11.792Z,972.44
2023-02-09T10:09:11.650Z,972.40
2023-02-09T10:10:12.188Z,972.47
2023-02-09T10:11:11.635Z,972.42
2023-02-09T10:12:11.635Z,972.43
2023-02-09T10:13:11.607Z,972.44
2023-02-09T10:14:11.618Z,972.41
2023-02-09T10:15:11.646Z,972.41
2023-02-09T10:16:11.607Z,972.42
2023-02-09T10:17:11.603Z,972.44
2023-02-09T10:18:11.550Z,972.41
2023-02-09T10:19:11.528Z,972.39
2023-02-09T10:20:11.557Z,972.36
2023-02-09T10:21:11.527Z,972.38
2023-02-09T10:22:11.497Z,972.40
2023-02-09T10:23:11.494Z,972.36
2023-02-09T10:24:11.537Z,972.40
2023-02-09T10:25:11.489Z,972.38
2023-02-09T10:26:11.471Z,972.35
2023-02-09T10:27:11.618Z,972.35
2023-02-09T10:28:11.479Z,972.35
2023-02-09T10:29:11.509Z,972.30
2023-02-09T10:30:11.466Z,972.33
2023-02-09T10:31:11.475Z,972.28
2023-02-09T10:32:11.454Z,972.33
2023-02-09T10:33:11.387Z,972.25
2023-02-09T10:34:11.446Z,972.21
2023-02-09T10:35:11.374Z,972.25
2023-02-09T10:36:11.339Z,972.23
2023-02-09T10:37:11.357Z,972.26
2023-02-09T10:38:11.358Z,972.22
2023-02-09T10:39:11.326Z,972.20
2023-02-09T10:40:11.338Z,972.18
2023-02-09T10:41:11.296Z,972.11
2023-02-09T10:42:11.407Z,972.16
2023-02-09T10:43:11.306Z,972.11
2023-02-09T10:44:11.262Z,972.16
2023-02-09T10:45:11.539Z,972.08
2023-02-09T10:46:11.316Z,972.17
2023-02-09T10:47:11.223Z,972.14
2023-02-09T10:48:11.210Z,972.09
2023-02-09T10:49:11.193Z,972.10
2023-02-09T10:50:11.811Z,972.08
2023-02-09T10:51:11.215Z,972.07
2023-02-09T10:52:11.287Z,972.08
2023-02-09T10:53:11.152Z,972.09
2023-02-09T10:54:11.155Z,972.10
2023-02-09T10:55:11.131Z,972.10
2023-02-09T10:56:26.935Z,972.08
2023-02-09T10:57:11.144Z,972.05
2023-02-09T10:58:11.161Z,972.06
2023-02-09T10:59:11.097Z,972.07
2023-02-09T11:00:11.076Z,972.01
2023-02-09T11:01:11.100Z,972.03
2023-02-09T11:02:12.392Z,971.99
2023-02-09T11:03:11.045Z,972.00
2023-02-09T11:04:11.102Z,971.99
2023-02-09T11:05:11.042Z,972.02
2023-02-09T11:06:11.069Z,971.93
2023-02-09T11:07:11.004Z,971.95
2023-02-09T11:08:10.996Z,971.89
2023-02-09T11:09:11.084Z,971.90
2023-02-09T11:10:12.414Z,971.87
2023-02-09T11:11:11.026Z,971.89
2023-02-09T11:12:11.002Z,971.93
2023-02-09T11:13:10.953Z,971.93
2023-02-09T11:14:10.949Z,971.93
2023-02-09T11:15:10.919Z,971.92
2023-02-09T11:16:10.956Z,971.93
2023-02-09T11:17:10.906Z,971.91
2023-02-09T11:18:10.944Z,971.88
2023-02-09T11:19:11.406Z,971.88
2023-02-09T11:20:10.896Z,971.97
2023-02-09T11:21:10.882Z,971.91
2023-02-09T11:22:10.890Z,971.94
2023-02-09T11:23:10.832Z,971.91
2023-02-09T11:24:10.817Z,971.86
2023-02-09T11:25:10.800Z,971.84
2023-02-09T11:26:10.866Z,971.89
2023-02-09T11:27:10.867Z,971.89
2023-02-09T11:28:10.816Z,971.86
2023-02-09T11:29:10.761Z,971.84
2023-02-09T11:30:10.751Z,971.84
2023-02-09T11:31:10.984Z,971.82
2023-02-09T11:32:10.752Z,971.84
2023-02-09T11:33:10.740Z,971.81
2023-02-09T11:34:10.723Z,971.86
2023-02-09T11:35:10.700Z,971.80
2023-02-09T11:36:10.732Z,971.77
2023-02-09T11:37:10.760Z,971.81
2023-02-09T11:38:10.664Z,971.78
2023-02-09T11:39:10.639Z,971.79
2023-02-09T11:40:10.663Z,971.79
2023-02-09T11:41:10.637Z,971.82
2023-02-09T11:42:10.673Z,971.79
2023-02-09T11:43:10.658Z,971.71
2023-02-09T11:44:11.251Z,971.76
2023-02-09T11:45:10.626Z,971.72
2023-02-09T11:46:10.621Z,971.68
2023-02-09T11:47:10.608Z,971.68
2023-02-09T11:48:10.559Z,971.71
2023-02-09T11:49:10.540Z,971.72
2023-02-09T11:50:10.543Z,971.73
2023-02-09T11:51:10.546Z,971.70
2023-02-09T11:52:10.536Z,971.70
2023-02-09T11:53:10.526Z,971.66
2023-02-09T11:54:10.495Z,971.70
2023-02-09T11:55:10.485Z,971.65
2023-02-09T11:56:10.496Z,971.66
2023-02-09T11:57:10.473Z,971.64
2023-02-09T11:58:10.493Z,971.63
2023-02-09T11:59:10.448Z,971.65
2023-02-09T12:00:10.543Z,971.62
2023-02-09T12:01:15.699Z,971.65
2023-02-09T12:02:10.482Z,971.64
2023-02-09T12:03:10.450Z,971.58
2023-02-09T12:04:10.375Z,971.60
2023-02-09T12:05:10.367Z,971.52
2023-02-09T12:06:10.505Z,971.54
2023-02-09T12:07:10.395Z,971.51
2023-02-09T12:08:10.352Z,971.53
2023-02-09T12:09:10.329Z,971.56
2023-02-09T12:10:10.334Z,971.54
2023-02-09T12:11:10.304Z,971.55
2023-02-09T12:12:10.284Z,971.48
2023-02-09T12:13:10.303Z,971.48
2023-02-09T12:14:10.284Z,971.50
2023-02-09T12:15:10.391Z,971.48
2023-02-09T12:16:10.351Z,971.44
2023-02-09T12:17:10.245Z,971.41
2023-02-09T12:18:10.229Z,971.44
2023-02-09T12:19:10.244Z,971.39
2023-02-09T12:20:10.243Z,971.42
2023-02-09T12:21:10.243Z,971.41
2023-02-09T12:22:10.170Z,971.39
2023-02-09T12:23:10.236Z,971.33
2023-02-09T12:24:10.158Z,971.31
2023-02-09T12:25:10.180Z,971.32
2023-02-09T12:26:10.140Z,971.32
2023-02-09T12:27:10.235Z,971.29
2023-02-09T12:28:10.165Z,971.31